Time;durP1;ratioP1;P1;durP2;ratioP2;P2;SDS_P1;SDS_P2;PMS_P1;PMS_P2;Temp;Humidity;BMP_temperature;BMP_pressure;BME280_temperature;BME280_humidity;BME280_pressure;Samples;Min_cycle;Max_cycle;Signal;HPM_P1;HPM_P2
2022/11/29 00:02:18;;;;;;;16.73;9.82;;;;;;;;;;5060424;28;20032;-79
2022/11/29 00:04:44;;;;;;;14.25;9.10;;;;;;;;;;5076359;28;20064;-79
2022/11/29 00:07:09;;;;;;;12.73;8.80;;;;;;;;;;5073600;28;20041;-79
2022/11/29 00:09:35;;;;;;;15.07;9.27;;;;;;;;;;5074684;28;20036;-78
2022/11/29 00:12:12;;;;;;;15.38;9.25;;;;;;;;;;5074771;28;20028;-79
2022/11/29 00:14:38;;;;;;;13.50;8.65;;;;;;;;;;5064394;28;20036;-79
2022/11/29 00:17:04;;;;;;;14.15;9.57;;;;;;;;;;5073528;28;20098;-79
2022/11/29 00:19:33;;;;;;;15.68;9.18;;;;;;;;;;5063904;28;20036;-77
2022/11/29 00:21:59;;;;;;;15.43;9.60;;;;;;;;;;5072528;28;20106;-77
2022/11/29 00:24:25;;;;;;;14.52;9.75;;;;;;;;;;5058513;28;20056;-77
2022/11/29 00:26:50;;;;;;;18.40;10.23;;;;;;;;;;5072175;28;20024;-77
2022/11/29 00:29:16;;;;;;;15.10;9.73;;;;;;;;;;5067982;28;20398;-77
2022/11/29 00:31:41;;;;;;;14.07;9.10;;;;;;;;;;5067872;28;20028;-77
2022/11/29 00:34:08;;;;;;;13.38;9.07;;;;;;;;;;5057126;28;20445;-77
2022/11/29 00:36:34;;;;;;;14.85;9.80;;;;;;;;;;5054973;28;20038;-79
2022/11/29 00:39:00;;;;;;;18.25;9.82;;;;;;;;;;5066896;28;20036;-78
2022/11/29 00:41:25;;;;;;;17.23;10.68;;;;;;;;;;5053141;28;20499;-78
2022/11/29 00:43:51;;;;;;;;;;;;;;;;;;5029988;28;20095;-78
2022/11/29 00:46:16;;;;;;;14.55;9.48;;;;;;;;;;5076136;28;20291;-78
2022/11/29 00:48:42;;;;;;;14.77;9.35;;;;;;;;;;5047025;28;20123;-79
2022/11/29 00:51:07;;;;;;;15.55;10.15;;;;;;;;;;5048502;28;20368;-79
2022/11/29 00:53:33;;;;;;;14.48;9.90;;;;;;;;;;5062314;28;20032;-78
2022/11/29 00:55:58;;;;;;;15.05;9.68;;;;;;;;;;5080042;28;20396;-78
2022/11/29 00:58:24;;;;;;;14.73;9.95;;;;;;;;;;5061644;28;20039;-78
2022/11/29 01:00:49;;;;;;;14.23;9.45;;;;;;;;;;5058214;28;20020;-78
2022/11/29 01:03:15;;;;;;;14.02;9.55;;;;;;;;;;5058510;28;20139;-78
2022/11/29 01:05:41;;;;;;;13.75;9.20;;;;;;;;;;5037359;28;20045;-78
2022/11/29 01:08:07;;;;;;;14.43;9.15;;;;;;;;;;5047754;28;20241;-78
2022/11/29 01:10:32;;;;;;;18.30;10.55;;;;;;;;;;5068904;28;20115;-79
2022/11/29 01:12:58;;;;;;;14.55;9.43;;;;;;;;;;5046926;28;20064;-79
2022/11/29 01:15:23;;;;;;;13.73;9.27;;;;;;;;;;5051486;28;20017;-78
2022/11/29 01:17:49;;;;;;;15.65;10.05;;;;;;;;;;5077066;28;20086;-78
2022/11/29 01:20:14;;;;;;;15.85;10.57;;;;;;;;;;5041946;28;20049;-79
2022/11/29 01:22:41;;;;;;;17.83;10.75;;;;;;;;;;5046894;28;20029;-78
2022/11/29 01:25:07;;;;;;;17.42;11.35;;;;;;;;;;5041428;28;20032;-78
2022/11/29 01:27:33;;;;;;;14.48;9.48;;;;;;;;;;5045576;28;20488;-79
2022/11/29 01:29:58;;;;;;;;;;;;;;;;;;5055916;28;20028;-76
2022/11/29 01:32:24;;;;;;;14.75;9.05;;;;;;;;;;5044441;28;19923;-78
2022/11/29 01:34:49;;;;;;;;;;;;;;;;;;5075349;28;20039;-78
2022/11/29 01:37:15;;;;;;;14.18;8.50;;;;;;;;;;5060263;28;19934;-79
2022/11/29 01:39:40;;;;;;;15.13;9.57;;;;;;;;;;5055366;28;20119;-78
2022/11/29 01:42:06;;;;;;;;;;;;;;;;;;5075004;28;20555;-76
2022/11/29 01:44:31;;;;;;;13.77;9.27;;;;;;;;;;5058016;28;20375;-76
2022/11/29 01:46:57;;;;;;;13.70;8.85;;;;;;;;;;5059193;28;20115;-78
2022/11/29 01:49:22;;;;;;;13.13;9.43;;;;;;;;;;5055400;28;20043;-79
2022/11/29 01:51:49;;;;;;;14.43;9.75;;;;;;;;;;5055618;28;20028;-78
2022/11/29 01:54:15;;;;;;;14.68;9.23;;;;;;;;;;5041700;28;20054;-77
2022/11/29 01:56:40;;;;;;;16.90;9.93;;;;;;;;;;5072115;28;20515;-76
2022/11/29 01:59:06;;;;;;;;;;;;;;;;;;5073848;28;20068;-76
2022/11/29 02:01:33;;;;;;;19.25;11.50;;;;;;;;;;5042546;28;19978;-79
2022/11/29 02:03:58;;;;;;;15.32;10.18;;;;;;;;;;5071035;28;20589;-78
2022/11/29 02:06:24;;;;;;;16.67;10.93;;;;;;;;;;5052230;28;20139;-77
2022/11/29 02:08:49;;;;;;;14.40;9.98;;;;;;;;;;5054356;28;20027;-77
2022/11/29 02:11:25;;;;;;;15.48;10.07;;;;;;;;;;5067707;28;20388;-77
2022/11/29 02:14:09;;;;;;;14.52;9.80;;;;;;;;;;5070100;28;20058;-78
2022/11/29 02:16:53;;;;;;;18.55;10.65;;;;;;;;;;5054470;28;20036;-79
2022/11/29 02:19:25;;;;;;;14.73;10.10;;;;;;;;;;5045508;28;20479;-78
2022/11/29 02:22:04;;;;;;;14.30;9.95;;;;;;;;;;5072786;28;20487;-77
2022/11/29 02:24:49;;;;;;;14.70;10.13;;;;;;;;;;5046901;28;20459;-79
2022/11/29 02:27:33;;;;;;;16.00;10.50;;;;;;;;;;5071831;28;20040;-79
2022/11/29 02:29:59;;;;;;;15.65;10.73;;;;;;;;;;5048803;28;20032;-78
2022/11/29 02:32:33;;;;;;;17.60;10.40;;;;;;;;;;5075430;28;20032;-79
2022/11/29 02:35:18;;;;;;;15.15;9.95;;;;;;;;;;5081418;28;20040;-78
2022/11/29 02:38:02;;;;;;;16.17;11.05;;;;;;;;;;5060221;28;20039;-77
2022/11/29 02:40:38;;;;;;;16.80;10.60;;;;;;;;;;5076065;28;20495;-78
2022/11/29 02:43:19;;;;;;;17.13;10.93;;;;;;;;;;5042832;28;20062;-78
2022/11/29 02:45:44;;;;;;;18.52;10.65;;;;;;;;;;5054211;28;20041;-78
2022/11/29 02:48:10;;;;;;;17.95;11.65;;;;;;;;;;5079387;28;20020;-78
2022/11/29 02:50:44;;;;;;;16.63;10.63;;;;;;;;;;5049673;28;20033;-78
2022/11/29 02:53:29;;;;;;;17.67;11.45;;;;;;;;;;5059693;28;20032;-78
2022/11/29 02:56:04;;;;;;;18.08;10.90;;;;;;;;;;5043738;28;20522;-77
2022/11/29 02:58:56;;;;;;;16.42;11.13;;;;;;;;;;5055571;28;20538;-78
2022/11/29 03:01:21;;;;;;;17.85;11.68;;;;;;;;;;5070974;28;20044;-78
2022/11/29 03:03:50;;;;;;;16.52;11.43;;;;;;;;;;5073830;28;20052;-78
2022/11/29 03:06:22;;;;;;;18.63;11.00;;;;;;;;;;5046690;28;20075;-78
2022/11/29 03:08:48;;;;;;;16.83;10.98;;;;;;;;;;5064783;28;20119;-79
2022/11/29 03:11:17;;;;;;;18.15;11.40;;;;;;;;;;5080542;28;20499;-78
2022/11/29 03:14:01;;;;;;;17.80;10.10;;;;;;;;;;5048377;28;20183;-79
2022/11/29 03:16:27;;;;;;;15.10;10.27;;;;;;;;;;5072885;28;20155;-78
2022/11/29 03:18:58;;;;;;;18.35;10.93;;;;;;;;;;5066185;28;20104;-79
2022/11/29 03:21:34;;;;;;;21.85;13.50;;;;;;;;;;5075702;28;20055;-78
2022/11/29 03:24:04;;;;;;;20.85;11.73;;;;;;;;;;5050715;28;20446;-78
2022/11/29 03:26:31;;;;;;;23.50;13.85;;;;;;;;;;5049706;28;20040;-79
2022/11/29 03:29:12;;;;;;;20.30;12.95;;;;;;;;;;5049424;28;20105;-79
2022/11/29 03:31:49;;;;;;;21.55;13.68;;;;;;;;;;5079177;28;20119;-78
2022/11/29 03:34:20;;;;;;;24.80;14.57;;;;;;;;;;5059510;28;20036;-79
2022/11/29 03:36:50;;;;;;;23.23;14.35;;;;;;;;;;5065234;28;20086;-79
2022/11/29 03:39:20;;;;;;;21.15;13.07;;;;;;;;;;5082957;28;20046;-79
2022/11/29 03:41:47;;;;;;;21.35;12.82;;;;;;;;;;5065407;28;20039;-81
2022/11/29 03:44:19;;;;;;;21.05;13.88;;;;;;;;;;5064562;28;20032;-79
2022/11/29 03:46:57;;;;;;;22.88;13.98;;;;;;;;;;5047424;28;20522;-78
2022/11/29 03:49:24;;;;;;;19.00;12.35;;;;;;;;;;5046986;28;20029;-77
2022/11/29 03:52:00;;;;;;;23.00;14.35;;;;;;;;;;5040990;28;20020;-76
2022/11/29 03:54:34;;;;;;;18.98;12.48;;;;;;;;;;5075525;28;20483;-78
2022/11/29 03:56:59;;;;;;;23.35;13.77;;;;;;;;;;5042726;28;20032;-78
2022/11/29 03:59:43;;;;;;;19.77;12.68;;;;;;;;;;5066583;28;20360;-77
2022/11/29 04:02:28;;;;;;;17.50;12.15;;;;;;;;;;5054196;28;20032;-78
2022/11/29 04:04:59;;;;;;;23.33;13.65;;;;;;;;;;5088676;28;20051;-79
2022/11/29 04:07:34;;;;;;;20.63;13.07;;;;;;;;;;5074257;28;20047;-78
2022/11/29 04:10:06;;;;;;;18.95;12.80;;;;;;;;;;5058008;28;20395;-78
2022/11/29 04:12:48;;;;;;;19.85;12.88;;;;;;;;;;5066355;28;20493;-79
2022/11/29 04:15:32;;;;;;;20.20;12.68;;;;;;;;;;5052015;28;20032;-78
2022/11/29 04:18:07;;;;;;;21.17;12.77;;;;;;;;;;5077264;28;20032;-78
2022/11/29 04:20:32;;;;;;;21.15;13.15;;;;;;;;;;5079008;28;20067;-78
2022/11/29 04:23:16;;;;;;;17.30;12.18;;;;;;;;;;5084858;28;20094;-78
2022/11/29 04:26:00;;;;;;;20.75;13.98;;;;;;;;;;5045974;28;20041;-78
2022/11/29 04:28:45;;;;;;;22.30;12.60;;;;;;;;;;5089453;28;20513;-78
2022/11/29 04:31:19;;;;;;;18.38;12.77;;;;;;;;;;5062295;28;20037;-78
2022/11/29 04:33:51;;;;;;;17.75;12.25;;;;;;;;;;5072051;28;20032;-78
2022/11/29 04:36:25;;;;;;;22.80;14.52;;;;;;;;;;5077843;28;20127;-77
2022/11/29 04:39:00;;;;;;;19.67;13.25;;;;;;;;;;5078305;28;20040;-77
2022/11/29 04:41:44;;;;;;;16.42;11.38;;;;;;;;;;5078395;28;20033;-79
2022/11/29 04:44:10;;;;;;;17.08;11.80;;;;;;;;;;5069052;28;20032;-76
2022/11/29 04:46:41;;;;;;;18.25;12.35;;;;;;;;;;5068288;28;20028;-77
2022/11/29 04:49:16;;;;;;;17.55;12.02;;;;;;;;;;5069783;28;20055;-76
2022/11/29 04:51:56;;;;;;;21.77;12.20;;;;;;;;;;5048722;28;20028;-77
2022/11/29 04:54:22;;;;;;;19.45;12.13;;;;;;;;;;5073008;28;20028;-78
2022/11/29 04:56:56;;;;;;;18.80;11.10;;;;;;;;;;5074920;28;20024;-77
2022/11/29 04:59:26;;;;;;;17.40;11.23;;;;;;;;;;5078132;28;20036;-78
2022/11/29 05:02:11;;;;;;;16.73;11.23;;;;;;;;;;5057819;28;20045;-79
2022/11/29 05:04:50;;;;;;;18.02;11.63;;;;;;;;;;5075929;28;20419;-78
2022/11/29 05:07:31;;;;;;;28.63;17.40;;;;;;;;;;5057810;28;20097;-78
2022/11/29 05:10:03;;;;;;;19.13;12.32;;;;;;;;;;5076182;28;20435;-78
2022/11/29 05:12:34;;;;;;;23.67;15.45;;;;;;;;;;5040361;28;20032;-78
2022/11/29 05:14:59;;;;;;;18.67;12.52;;;;;;;;;;5058909;28;20079;-80
2022/11/29 05:17:31;;;;;;;19.20;11.90;;;;;;;;;;5080893;28;20024;-79
2022/11/29 05:20:00;;;;;;;18.45;12.15;;;;;;;;;;5083690;28;20067;-78
2022/11/29 05:22:34;;;;;;;21.33;12.23;;;;;;;;;;5082785;28;20042;-79
2022/11/29 05:25:18;;;;;;;15.70;10.82;;;;;;;;;;5084663;28;20035;-79
2022/11/29 05:27:46;;;;;;;15.43;10.18;;;;;;;;;;5064769;28;20082;-79
2022/11/29 05:30:37;;;;;;;20.10;12.80;;;;;;;;;;5055193;28;20438;-80
2022/11/29 05:33:08;;;;;;;17.52;12.00;;;;;;;;;;5031287;28;20126;-78
2022/11/29 05:35:37;;;;;;;18.33;12.02;;;;;;;;;;5064130;28;20040;-79
2022/11/29 05:38:06;;;;;;;15.82;10.82;;;;;;;;;;5087807;28;20081;-79
2022/11/29 05:40:37;;;;;;;16.50;10.63;;;;;;;;;;5064246;28;20034;-80
2022/11/29 05:43:21;;;;;;;15.63;10.90;;;;;;;;;;5067511;28;20064;-79
2022/11/29 05:45:56;;;;;;;18.67;11.15;;;;;;;;;;5071681;28;20036;-79
2022/11/29 05:48:44;;;;;;;15.93;10.60;;;;;;;;;;5068927;28;20077;-79
2022/11/29 05:51:26;;;;;;;17.08;10.75;;;;;;;;;;5079891;28;20483;-80
2022/11/29 05:54:01;;;;;;;18.73;12.20;;;;;;;;;;5072547;28;20029;-80
2022/11/29 05:56:40;;;;;;;23.73;13.20;;;;;;;;;;5066218;28;20487;-80
2022/11/29 05:59:07;;;;;;;17.92;11.00;;;;;;;;;;5061745;28;20036;-80
2022/11/29 06:01:32;;;;;;;16.10;10.10;;;;;;;;;;5069977;28;20056;-80
2022/11/29 06:04:03;;;;;;;17.38;10.63;;;;;;;;;;5061128;28;20126;-79
2022/11/29 06:06:29;;;;;;;18.63;11.05;;;;;;;;;;5064886;28;20040;-80
2022/11/29 06:08:56;;;;;;;16.95;11.32;;;;;;;;;;5071758;28;20066;-79
2022/11/29 06:11:23;;;;;;;18.73;11.57;;;;;;;;;;5048114;28;20091;-79
2022/11/29 06:13:57;;;;;;;15.73;11.07;;;;;;;;;;5071772;28;20081;-79
2022/11/29 06:16:42;;;;;;;17.95;10.90;;;;;;;;;;5049359;28;20051;-79
2022/11/29 06:19:17;;;;;;;17.13;11.18;;;;;;;;;;5070153;28;20090;-79
2022/11/29 06:21:45;;;;;;;17.23;10.93;;;;;;;;;;5075836;28;20028;-79
2022/11/29 06:24:36;;;;;;;15.77;10.80;;;;;;;;;;5063147;28;20055;-79
2022/11/29 06:27:11;;;;;;;18.88;12.27;;;;;;;;;;5070357;28;20479;-79
2022/11/29 06:29:53;;;;;;;19.20;12.40;;;;;;;;;;5074726;28;20052;-79
2022/11/29 06:32:39;;;;;;;19.60;12.48;;;;;;;;;;5084867;28;20032;-80
2022/11/29 06:35:18;;;;;;;19.00;12.95;;;;;;;;;;5071837;28;20058;-80
2022/11/29 06:37:47;;;;;;;20.90;12.80;;;;;;;;;;5074454;28;20384;-78
2022/11/29 06:40:13;;;;;;;20.60;13.93;;;;;;;;;;5087117;28;20023;-79
2022/11/29 06:42:38;;;;;;;;;;;;;;;;;;5063713;28;20419;-78
2022/11/29 06:45:04;;;;;;;20.15;13.48;;;;;;;;;;5081501;28;19919;-78
2022/11/29 06:47:50;;;;;;;23.52;14.45;;;;;;;;;;5046389;28;20037;-79
2022/11/29 06:50:15;;;;;;;24.58;15.77;;;;;;;;;;5078687;28;20525;-78
2022/11/29 06:52:47;;;;;;;22.75;15.02;;;;;;;;;;5071785;28;20060;-79
2022/11/29 06:55:12;;;;;;;25.02;14.75;;;;;;;;;;5051760;28;20032;-81
2022/11/29 06:57:56;;;;;;;21.42;14.45;;;;;;;;;;5091256;28;20110;-79
2022/11/29 07:00:25;;;;;;;31.17;18.23;;;;;;;;;;5071368;28;20388;-79
2022/11/29 07:02:51;;;;;;;24.10;14.77;;;;;;;;;;5056334;28;20036;-79
2022/11/29 07:05:24;;;;;;;26.95;17.23;;;;;;;;;;5077737;28;20556;-78
2022/11/29 07:07:51;;;;;;;29.08;16.77;;;;;;;;;;5071589;28;20071;-79
2022/11/29 07:10:17;;;;;;;28.23;16.63;;;;;;;;;;5060866;28;20437;-80
2022/11/29 07:12:46;;;;;;;25.25;16.38;;;;;;;;;;5071852;28;20040;-80
2022/11/29 07:15:13;;;;;;;27.17;17.42;;;;;;;;;;5061099;28;20078;-78
2022/11/29 07:17:42;;;;;;;29.42;18.27;;;;;;;;;;5072082;28;20054;-79
2022/11/29 07:20:09;;;;;;;31.75;20.35;;;;;;;;;;5056494;28;20028;-79
2022/11/29 07:22:44;;;;;;;35.88;20.90;;;;;;;;;;5053724;28;20074;-79
2022/11/29 07:25:15;;;;;;;43.75;24.45;;;;;;;;;;5072007;28;20119;-79
2022/11/29 07:27:45;;;;;;;38.67;24.13;;;;;;;;;;5087232;28;20127;-81
2022/11/29 07:30:17;;;;;;;43.25;25.38;;;;;;;;;;5071677;28;20032;-80
2022/11/29 07:33:01;;;;;;;45.90;26.52;;;;;;;;;;5069780;28;20035;-80
2022/11/29 07:35:46;;;;;;;45.53;27.02;;;;;;;;;;5088429;28;20032;-80
2022/11/29 07:38:17;;;;;;;48.63;28.50;;;;;;;;;;5062280;28;20043;-79
2022/11/29 07:40:49;;;;;;;47.85;27.00;;;;;;;;;;5084682;28;20039;-80
2022/11/29 07:43:24;;;;;;;46.15;26.77;;;;;;;;;;5071402;28;20051;-79
2022/11/29 07:45:49;;;;;;;51.10;29.55;;;;;;;;;;5085078;28;20032;-80
2022/11/29 07:48:15;;;;;;;49.95;27.65;;;;;;;;;;5068908;28;20090;-79
2022/11/29 07:50:41;;;;;;;49.55;27.63;;;;;;;;;;5067784;28;20033;-78
2022/11/29 07:53:08;;;;;;;47.17;28.27;;;;;;;;;;5087098;28;20063;-79
2022/11/29 07:55:34;;;;;;;47.60;26.50;;;;;;;;;;5075158;28;20071;-79
2022/11/29 07:58:00;;;;;;;46.97;25.52;;;;;;;;;;5076176;28;20023;-79
2022/11/29 08:00:25;;;;;;;46.00;26.33;;;;;;;;;;5080429;28;20407;-79
2022/11/29 08:02:51;;;;;;;41.47;24.75;;;;;;;;;;5094461;28;20127;-78
2022/11/29 08:05:16;;;;;;;42.95;22.85;;;;;;;;;;5093337;28;20047;-81
2022/11/29 08:07:42;;;;;;;41.45;24.23;;;;;;;;;;5076445;28;20035;-78
2022/11/29 08:10:08;;;;;;;43.05;25.15;;;;;;;;;;5093180;28;20082;-80
2022/11/29 08:12:34;;;;;;;39.30;22.67;;;;;;;;;;5075771;28;20032;-80
2022/11/29 08:15:00;;;;;;;52.65;27.80;;;;;;;;;;5092875;28;20119;-79
2022/11/29 08:17:25;;;;;;;43.38;24.05;;;;;;;;;;5093029;28;20166;-79
2022/11/29 08:19:51;;;;;;;43.70;23.75;;;;;;;;;;5092749;28;20040;-79
2022/11/29 08:22:16;;;;;;;41.17;22.95;;;;;;;;;;5075474;28;20031;-80
2022/11/29 08:24:42;;;;;;;43.83;23.80;;;;;;;;;;5074749;28;20036;-80
2022/11/29 08:27:07;;;;;;;37.83;22.27;;;;;;;;;;5093518;28;20024;-79
2022/11/29 08:29:33;;;;;;;41.65;23.58;;;;;;;;;;5087156;28;20032;-78
2022/11/29 08:31:58;;;;;;;37.20;21.45;;;;;;;;;;5074473;28;20036;-79
2022/11/29 08:34:24;;;;;;;35.53;21.58;;;;;;;;;;5061466;28;20031;-80
2022/11/29 08:36:49;;;;;;;35.15;20.50;;;;;;;;;;5076156;28;20046;-80
2022/11/29 08:39:15;;;;;;;35.13;19.60;;;;;;;;;;5058208;28;20415;-80
2022/11/29 08:41:41;;;;;;;33.28;19.20;;;;;;;;;;5064530;28;20032;-79
2022/11/29 08:44:06;;;;;;;36.05;21.58;;;;;;;;;;5072167;28;20034;-80
2022/11/29 08:49:16;;;;;;;34.72;20.50;;;;;;;;;;5077778;28;20036;-79
2022/11/29 08:51:41;;;;;;;32.78;20.20;;;;;;;;;;5042431;28;20021;-78
2022/11/29 08:54:07;;;;;;;33.97;21.48;;;;;;;;;;5093558;28;20560;-78
2022/11/29 08:56:32;;;;;;;37.60;21.45;;;;;;;;;;5090589;28;20430;-80
2022/11/29 08:58:58;;;;;;;32.83;20.92;;;;;;;;;;5046139;28;20040;-80
2022/11/29 09:01:23;;;;;;;35.58;20.27;;;;;;;;;;5091588;28;20057;-80
2022/11/29 09:03:58;;;;;;;32.90;19.80;;;;;;;;;;5074334;28;20146;-80
2022/11/29 09:06:24;;;;;;;32.70;19.90;;;;;;;;;;5090585;28;20044;-80
2022/11/29 09:08:49;;;;;;;29.52;18.83;;;;;;;;;;5062575;28;20032;-80
2022/11/29 09:11:16;;;;;;;31.77;18.73;;;;;;;;;;5088651;28;20498;-79
2022/11/29 09:13:42;;;;;;;30.95;18.95;;;;;;;;;;5062943;28;20475;-79
2022/11/29 09:16:07;;;;;;;;;;;;;;;;;;5089387;28;20050;-79
2022/11/29 09:18:33;;;;;;;30.73;17.65;;;;;;;;;;5080811;28;19908;-80
2022/11/29 09:20:58;;;;;;;30.70;17.67;;;;;;;;;;5054583;28;20093;-80
2022/11/29 09:23:24;;;;;;;32.75;20.02;;;;;;;;;;5080582;28;20106;-79
2022/11/29 09:25:49;;;;;;;29.35;18.70;;;;;;;;;;5068753;28;20043;-80
2022/11/29 09:28:15;;;;;;;31.00;18.33;;;;;;;;;;5067973;28;20032;-80
2022/11/29 09:30:40;;;;;;;34.15;18.80;;;;;;;;;;5086236;28;20111;-80
2022/11/29 09:33:06;;;;;;;26.73;17.63;;;;;;;;;;5059407;28;20027;-79
2022/11/29 09:35:32;;;;;;;31.50;18.25;;;;;;;;;;5077250;28;20495;-79
2022/11/29 09:37:57;;;;;;;31.13;19.08;;;;;;;;;;5076722;28;20031;-79
2022/11/29 09:40:43;;;;;;;33.13;19.05;;;;;;;;;;5084201;28;20036;-79
2022/11/29 09:43:18;;;;;;;28.58;17.35;;;;;;;;;;5079682;28;20044;-79
2022/11/29 09:45:44;;;;;;;35.38;18.15;;;;;;;;;;5078214;28;20508;-79
2022/11/29 09:48:29;;;;;;;29.10;18.15;;;;;;;;;;5067883;28;20069;-81
2022/11/29 09:50:55;;;;;;;28.85;17.63;;;;;;;;;;5074996;28;20039;-79
2022/11/29 09:53:42;;;;;;;23.42;15.38;;;;;;;;;;5073460;28;20028;-78
2022/11/29 09:56:11;;;;;;;27.40;14.93;;;;;;;;;;5073747;28;20042;-79
2022/11/29 09:58:42;;;;;;;24.92;15.35;;;;;;;;;;5074562;28;20380;-78
2022/11/29 10:01:09;;;;;;;23.70;15.07;;;;;;;;;;5083715;28;20089;-79
2022/11/29 10:03:37;;;;;;;24.95;14.63;;;;;;;;;;5054372;28;20576;-80
2022/11/29 10:06:06;;;;;;;25.45;15.25;;;;;;;;;;5062331;28;20388;-79
2022/11/29 10:08:32;;;;;;;26.52;15.38;;;;;;;;;;5068866;28;20020;-79
2022/11/29 10:11:18;;;;;;;23.13;14.80;;;;;;;;;;5072280;28;20028;-80
2022/11/29 10:13:45;;;;;;;26.80;15.32;;;;;;;;;;5045375;28;20028;-79
2022/11/29 10:16:13;;;;;;;23.73;15.18;;;;;;;;;;5069542;28;20024;-77
2022/11/29 10:18:57;;;;;;;24.42;15.52;;;;;;;;;;5072241;28;20036;-79
2022/11/29 10:21:24;;;;;;;21.63;14.68;;;;;;;;;;5069735;28;20494;-79
2022/11/29 10:23:51;;;;;;;25.35;15.13;;;;;;;;;;5038670;28;20023;-78
2022/11/29 10:26:17;;;;;;;23.85;14.00;;;;;;;;;;5055064;28;20028;-78
2022/11/29 10:28:47;;;;;;;22.65;14.07;;;;;;;;;;5081898;28;20058;-78
2022/11/29 10:31:19;;;;;;;21.00;13.45;;;;;;;;;;5048049;28;20055;-78
2022/11/29 10:33:45;;;;;;;19.23;12.98;;;;;;;;;;5064493;28;20043;-79
2022/11/29 10:36:31;;;;;;;19.80;13.00;;;;;;;;;;5068969;28;20028;-79
2022/11/29 10:38:58;;;;;;;23.83;14.65;;;;;;;;;;5050686;28;20396;-79
2022/11/29 10:41:23;;;;;;;19.13;12.48;;;;;;;;;;5071739;28;20028;-78
2022/11/29 10:43:49;;;;;;;19.63;12.57;;;;;;;;;;5052649;28;20032;-79
2022/11/29 10:46:17;;;;;;;21.40;12.60;;;;;;;;;;5061637;28;20545;-79
2022/11/29 10:48:42;;;;;;;17.08;11.93;;;;;;;;;;5033806;28;20037;-77
2022/11/29 10:51:13;;;;;;;19.77;11.98;;;;;;;;;;5080872;28;20105;-79
2022/11/29 10:53:38;;;;;;;19.48;12.43;;;;;;;;;;5069920;28;20036;-79
2022/11/29 10:56:04;;;;;;;19.13;12.20;;;;;;;;;;5092028;28;20082;-79
2022/11/29 10:58:30;;;;;;;21.05;12.55;;;;;;;;;;5090844;28;20042;-79
2022/11/29 11:01:08;;;;;;;20.52;12.73;;;;;;;;;;5073717;28;20407;-79
2022/11/29 11:03:35;;;;;;;19.38;12.32;;;;;;;;;;5055963;28;20567;-79
2022/11/29 11:06:03;;;;;;;20.20;11.82;;;;;;;;;;5073293;28;20039;-78
2022/11/29 11:08:29;;;;;;;15.18;10.88;;;;;;;;;;5072518;28;20068;-79
2022/11/29 11:10:55;;;;;;;17.27;11.25;;;;;;;;;;5066273;28;20024;-79
2022/11/29 11:13:21;;;;;;;17.40;11.70;;;;;;;;;;5071614;28;20077;-79
2022/11/29 11:15:47;;;;;;;20.65;11.02;;;;;;;;;;5073495;28;20084;-79
2022/11/29 11:18:19;;;;;;;20.30;11.38;;;;;;;;;;5071872;28;20039;-77
2022/11/29 11:20:47;;;;;;;21.05;11.82;;;;;;;;;;5068257;28;20036;-78
2022/11/29 11:23:24;;;;;;;16.23;11.23;;;;;;;;;;5058147;28;20024;-79
2022/11/29 11:25:55;;;;;;;18.58;11.70;;;;;;;;;;5056756;28;20036;-78
2022/11/29 11:28:21;;;;;;;18.75;11.65;;;;;;;;;;5051451;28;20039;-78
2022/11/29 11:30:54;;;;;;;19.38;12.68;;;;;;;;;;5068505;28;20036;-78
2022/11/29 11:33:21;;;;;;;20.98;13.30;;;;;;;;;;5049700;28;20032;-76
2022/11/29 11:36:13;;;;;;;25.67;15.35;;;;;;;;;;5052089;28;20021;-79
2022/11/29 11:38:48;;;;;;;25.35;16.55;;;;;;;;;;5081338;28;20506;-80
2022/11/29 11:41:19;;;;;;;26.80;14.88;;;;;;;;;;5063544;28;20070;-78
2022/11/29 11:44:03;;;;;;;19.38;12.23;;;;;;;;;;5078311;28;20079;-78
2022/11/29 11:46:44;;;;;;;24.85;12.80;;;;;;;;;;5082893;28;20041;-79
2022/11/29 11:49:13;;;;;;;20.45;11.93;;;;;;;;;;5053822;28;20491;-79
2022/11/29 11:51:40;;;;;;;19.45;12.73;;;;;;;;;;5043052;28;20029;-78
2022/11/29 11:54:11;;;;;;;18.10;11.77;;;;;;;;;;5063786;28;20043;-79
2022/11/29 11:56:37;;;;;;;24.20;12.60;;;;;;;;;;5039939;28;20036;-79
2022/11/29 11:59:02;;;;;;;18.50;11.95;;;;;;;;;;5047717;28;20105;-80
2022/11/29 12:01:37;;;;;;;21.50;12.38;;;;;;;;;;5079960;28;20033;-79
2022/11/29 12:04:22;;;;;;;19.60;12.90;;;;;;;;;;5065461;28;20059;-78
2022/11/29 12:06:48;;;;;;;19.58;12.07;;;;;;;;;;5073083;28;20036;-78
2022/11/29 12:09:37;;;;;;;16.70;11.25;;;;;;;;;;5075523;28;20406;-79
2022/11/29 12:12:03;;;;;;;18.08;11.25;;;;;;;;;;5060681;28;20044;-79
2022/11/29 12:14:46;;;;;;;19.00;12.15;;;;;;;;;;5090845;28;20024;-79
2022/11/29 12:17:21;;;;;;;22.77;12.25;;;;;;;;;;5083255;28;20377;-79
2022/11/29 12:20:10;;;;;;;23.83;12.52;;;;;;;;;;5056553;28;20125;-79
2022/11/29 12:22:54;;;;;;;18.77;11.48;;;;;;;;;;5068562;28;20037;-79
2022/11/29 12:25:21;;;;;;;21.10;12.50;;;;;;;;;;5082819;28;20043;-78
2022/11/29 12:27:47;;;;;;;20.83;11.50;;;;;;;;;;5054692;28;20055;-79
2022/11/29 12:30:13;;;;;;;17.67;11.77;;;;;;;;;;5074480;28;20039;-79
2022/11/29 12:32:46;;;;;;;18.73;12.20;;;;;;;;;;5068688;28;20021;-78
2022/11/29 12:35:18;;;;;;;22.05;11.73;;;;;;;;;;5067577;28;20036;-79
2022/11/29 12:37:46;;;;;;;22.77;12.45;;;;;;;;;;5071412;28;20040;-79
2022/11/29 12:40:21;;;;;;;18.48;10.50;;;;;;;;;;5090717;28;20032;-78
2022/11/29 12:42:53;;;;;;;17.55;11.13;;;;;;;;;;5085095;28;20137;-78
2022/11/29 12:45:22;;;;;;;19.70;11.20;;;;;;;;;;5039565;28;20544;-80
2022/11/29 12:48:00;;;;;;;21.55;12.30;;;;;;;;;;5063214;28;20024;-79
2022/11/29 12:50:44;;;;;;;20.73;12.35;;;;;;;;;;5066070;28;20037;-79
2022/11/29 12:53:25;;;;;;;19.98;11.45;;;;;;;;;;5073903;28;20491;-79
2022/11/29 12:56:06;;;;;;;20.83;12.75;;;;;;;;;;5053167;28;20036;-79
2022/11/29 12:58:52;;;;;;;20.10;12.52;;;;;;;;;;5092431;28;20028;-78
2022/11/29 13:01:24;;;;;;;20.20;11.77;;;;;;;;;;5074852;28;20046;-79
2022/11/29 13:04:10;;;;;;;20.80;12.32;;;;;;;;;;5062531;28;20056;-79
2022/11/29 13:06:48;;;;;;;22.77;13.00;;;;;;;;;;5056053;28;20143;-78
2022/11/29 13:09:20;;;;;;;20.48;12.15;;;;;;;;;;5058066;28;20405;-78
2022/11/29 13:11:53;;;;;;;20.20;12.20;;;;;;;;;;5078219;28;20032;-78
2022/11/29 13:14:21;;;;;;;25.85;14.02;;;;;;;;;;5056579;28;20367;-77
2022/11/29 13:16:55;;;;;;;26.27;13.02;;;;;;;;;;5056129;28;20028;-78
2022/11/29 13:19:27;;;;;;;23.27;13.77;;;;;;;;;;5059849;28;20036;-78
2022/11/29 13:21:55;;;;;;;28.38;14.13;;;;;;;;;;5070149;28;20486;-78
2022/11/29 13:24:23;;;;;;;23.08;12.65;;;;;;;;;;5068473;28;20031;-78
2022/11/29 13:26:49;;;;;;;23.70;13.15;;;;;;;;;;5062806;28;20028;-78
2022/11/29 13:29:14;;;;;;;22.70;13.75;;;;;;;;;;5052623;28;20171;-79
2022/11/29 13:31:40;;;;;;;25.38;14.10;;;;;;;;;;5065423;28;20044;-79
2022/11/29 13:34:12;;;;;;;21.38;13.57;;;;;;;;;;5049802;28;20020;-80
2022/11/29 13:36:53;;;;;;;25.52;14.00;;;;;;;;;;5072327;28;20032;-79
2022/11/29 13:39:34;;;;;;;25.98;13.80;;;;;;;;;;5076265;28;20166;-78
2022/11/29 13:42:15;;;;;;;22.40;13.88;;;;;;;;;;5069718;28;20032;-79
2022/11/29 13:44:59;;;;;;;26.25;14.77;;;;;;;;;;5052735;28;20031;-78
2022/11/29 13:47:25;;;;;;;26.20;14.93;;;;;;;;;;5084795;28;20028;-79
2022/11/29 13:49:54;;;;;;;25.70;14.52;;;;;;;;;;5071309;28;20454;-79
2022/11/29 13:52:45;;;;;;;22.42;13.68;;;;;;;;;;5067844;28;20078;-79
2022/11/29 13:55:11;;;;;;;22.55;13.88;;;;;;;;;;5070576;28;20028;-79
2022/11/29 13:57:48;;;;;;;22.02;13.25;;;;;;;;;;5062732;28;20028;-80
2022/11/29 14:00:23;;;;;;;21.85;12.82;;;;;;;;;;5073839;28;20035;-80
2022/11/29 14:02:48;;;;;;;23.17;13.20;;;;;;;;;;5083074;28;20046;-79
2022/11/29 14:05:24;;;;;;;24.00;13.45;;;;;;;;;;5069718;28;20495;-79
2022/11/29 14:08:08;;;;;;;24.00;14.10;;;;;;;;;;5071716;28;20039;-79
2022/11/29 14:10:34;;;;;;;21.38;13.32;;;;;;;;;;5072629;28;20036;-78
2022/11/29 14:13:00;;;;;;;22.63;13.45;;;;;;;;;;5064936;28;20376;-78
2022/11/29 14:15:32;;;;;;;23.15;13.40;;;;;;;;;;5071395;28;20086;-79
2022/11/29 14:18:07;;;;;;;24.83;14.25;;;;;;;;;;5057993;28;20063;-78
2022/11/29 14:20:40;;;;;;;21.42;13.10;;;;;;;;;;5046703;28;20452;-79
2022/11/29 14:23:31;;;;;;;23.08;12.82;;;;;;;;;;5087504;28;20102;-79
2022/11/29 14:25:56;;;;;;;21.60;12.70;;;;;;;;;;5086374;28;20751;-78
2022/11/29 14:28:22;;;;;;;22.02;12.70;;;;;;;;;;5064061;28;20037;-78
2022/11/29 14:30:54;;;;;;;20.92;12.77;;;;;;;;;;5081865;28;20498;-80
2022/11/29 14:33:23;;;;;;;22.30;13.40;;;;;;;;;;5053222;28;20047;-78
2022/11/29 14:35:49;;;;;;;23.27;12.18;;;;;;;;;;5065895;28;20052;-78
2022/11/29 14:38:28;;;;;;;22.52;11.70;;;;;;;;;;5044259;28;20040;-81
2022/11/29 14:41:14;;;;;;;24.05;12.38;;;;;;;;;;5049995;28;20137;-79
2022/11/29 14:43:40;;;;;;;21.38;12.93;;;;;;;;;;5068612;28;20054;-78
2022/11/29 14:46:06;;;;;;;18.75;11.40;;;;;;;;;;5076875;28;20028;-79
2022/11/29 14:48:32;;;;;;;23.50;13.30;;;;;;;;;;5067851;28;20406;-78